Details From KMVY - Marthas Vineyard
To KPVC - Provincetown Muni
Flight Number -
Tags Generated
Created
Modified
Stats Distance 45 nm / 83 km
Max Altitude 0 ft / 0 m
Waypoints 2
Social Downloads 2
Likes 0
Share VATSIM

Download

Looking for another format? Having issues loading an existing format? Contact us
Advertisement - Login to hide

Notes

Generated

Route

KMVY KPVC

ID Type Via Altitude Latitude Longitude Leg Dist Tot Dist Heading (true) Name
O KMVY APT - 0 ft / 0 m 41.38763˚ -70.61791˚ - 0 nm - Marthas Vineyard
O KPVC APT - 0 ft / 0 m 42.06983˚ -70.22628˚ 44 nm 44 nm 23° / 23° -

Altitude Profile

Advertisement - Login to hide

KMVY

Details ICAO KMVY (MVY)
Name Marthas Vineyard
Region United States
Timezone America/New_York (UTC-5.0)
Stats Elevation 68 ft / 21 m (AMSL)
Location 41.392961° -70.615852°
Runways 3
Magnetic Variation 14.583° W

METAR

KMVY 152153Z 05005KT 10SM FEW022 OVC075 M03/M06 A2989 RMK AO2 SLPNO T10281061 $

Decode

TAF

Not found

Departure Runways

ID Width Length Bearing (true) Bearing (mag) Surface Threshold Offset Overrun Length
01 75 ft / 23 m 3,182 ft / 970 m 355.64° 10.22° Asphalt 100 ft / 30 m 0 ft / 0 m
06 100 ft / 30 m 5,503 ft / 1,677 m 40.50° 55.08° Asphalt 300 ft / 91 m 0 ft / 0 m
15 75 ft / 23 m 3,294 ft / 1,004 m 130.72° 145.30° Asphalt 250 ft / 76 m 0 ft / 0 m
19 75 ft / 23 m 3,182 ft / 970 m 175.64° 190.22° Asphalt 100 ft / 30 m 0 ft / 0 m
24 100 ft / 30 m 5,503 ft / 1,677 m 220.51° 235.09° Asphalt 300 ft / 91 m 0 ft / 0 m
33 75 ft / 23 m 3,294 ft / 1,004 m 310.73° 325.31° Asphalt 250 ft / 76 m 0 ft / 0 m

KPVC

Details ICAO KPVC (PVC)
Name Provincetown Muni
Region United States
Timezone America/New_York (UTC-5.0)
Stats Elevation 8 ft / 2 m (AMSL)
Location 42.072281° -70.220737°
Runways 1
Magnetic Variation 14.905° W

METAR

KPVC 152156Z AUTO 00000KT 10SM CLR M03/M08 A2993 RMK AO2 SLP134 T10281078 FZRANO

Decode

TAF

Not found

Destination Runways

ID Width Length Bearing (true) Bearing (mag) Surface Threshold Offset Overrun Length
07 100 ft / 30 m 3,495 ft / 1,065 m 59.23° 74.14° Asphalt 0 ft / 0 m 0 ft / 0 m
25 100 ft / 30 m 3,495 ft / 1,065 m 239.23° 254.14° Asphalt 0 ft / 0 m 0 ft / 0 m

Approach Navaids

Runway Type Ident Frequency Range Bearing (true) Bearing (mag) Slope Elevation
07 Localiser IVQO 111.10 MHz 18 nm / 33 km 59.22° 74.13° - 8 ft / 2 m (AMSL)
07 Glidescope IVQO 111.10 MHz 10 nm / 19 km 59.23° 74.14° 3.00° 9 ft / 3 m (AMSL)
07 DME IVQO 111.10 MHz 18 nm / 33 km - - - 8 ft / 2 m (AMSL)